createdAt,value
2023-05-16T00:01:41.336Z,0.90
2023-05-16T00:04:08.850Z,0.70
2023-05-16T00:06:36.329Z,1.33
2023-05-16T00:09:03.874Z,0.80
2023-05-16T00:11:31.257Z,0.50
2023-05-16T00:13:58.902Z,1.20
2023-05-16T00:16:29.288Z,1.30
2023-05-16T00:19:00.985Z,1.27
2023-05-16T00:21:28.748Z,1.93
2023-05-16T00:23:56.125Z,1.57
2023-05-16T00:26:23.504Z,0.93
2023-05-16T00:28:50.867Z,2.70
2023-05-16T00:31:18.334Z,1.60
2023-05-16T00:33:46.038Z,0.83
2023-05-16T00:36:13.381Z,1.43
2023-05-16T00:38:40.862Z,0.70
2023-05-16T00:41:08.259Z,0.80
2023-05-16T00:43:37.695Z,0.87
2023-05-16T00:46:05.169Z,0.80
2023-05-16T00:48:33.220Z,0.70
2023-05-16T00:51:01.888Z,0.77
2023-05-16T00:53:29.322Z,0.83
2023-05-16T00:55:57.923Z,1.50
2023-05-16T00:58:25.802Z,2.43
2023-05-16T01:00:53.493Z,0.40
2023-05-16T01:03:21.265Z,0.80
2023-05-16T01:05:49.863Z,0.80
2023-05-16T01:08:17.431Z,1.00
2023-05-16T01:11:00.954Z,0.60
2023-05-16T01:13:44.632Z,0.97
2023-05-16T01:16:39.498Z,1.20
2023-05-16T01:19:33.218Z,0.60
2023-05-16T01:22:07.192Z,0.83
2023-05-16T01:24:49.812Z,0.60
2023-05-16T01:27:17.552Z,1.33
2023-05-16T01:29:44.961Z,1.17
2023-05-16T01:32:14.477Z,2.20
2023-05-16T01:34:42.129Z,1.63
2023-05-16T01:37:14.865Z,1.70
2023-05-16T01:39:56.874Z,0.80
2023-05-16T01:42:27.399Z,2.00
2023-05-16T01:45:03.603Z,1.40
2023-05-16T01:47:33.293Z,1.07
2023-05-16T01:50:20.377Z,2.43
2023-05-16T01:53:00.973Z,1.03
2023-05-16T01:55:46.648Z,1.63
2023-05-16T01:58:15.853Z,1.87
2023-05-16T02:00:43.474Z,0.50
2023-05-16T02:03:10.945Z,1.03
2023-05-16T02:05:38.881Z,2.23
2023-05-16T02:08:06.429Z,0.70
2023-05-16T02:10:33.811Z,0.80
2023-05-16T02:13:01.777Z,1.60
2023-05-16T02:15:29.525Z,1.40
2023-05-16T02:17:58.661Z,1.07
2023-05-16T02:20:26.431Z,0.80
2023-05-16T02:22:54.713Z,1.03
2023-05-16T02:25:22.123Z,0.70
2023-05-16T02:27:49.600Z,0.50
2023-05-16T02:30:16.968Z,2.67
2023-05-16T02:32:49.085Z,2.70
2023-05-16T02:35:17.625Z,1.10
2023-05-16T02:37:45.056Z,0.73
2023-05-16T02:40:12.924Z,0.87
2023-05-16T02:42:40.361Z,0.50
2023-05-16T02:45:08.114Z,0.50
2023-05-16T02:47:35.647Z,0.97
2023-05-16T02:50:03.754Z,0.97
2023-05-16T02:52:31.191Z,1.70
2023-05-16T02:55:09.916Z,1.67
2023-05-16T02:57:45.997Z,1.10
2023-05-16T03:00:15.614Z,2.07
2023-05-16T03:02:44.892Z,1.17
2023-05-16T03:05:12.711Z,0.63
2023-05-16T03:07:41.111Z,0.80
2023-05-16T03:10:08.955Z,0.80
2023-05-16T03:12:36.305Z,0.87
2023-05-16T03:15:04.165Z,1.43
2023-05-16T03:17:31.776Z,1.43
2023-05-16T03:19:59.197Z,1.77
2023-05-16T03:22:26.565Z,0.83
2023-05-16T03:24:53.889Z,0.70
2023-05-16T03:27:22.695Z,1.73
2023-05-16T03:29:50.644Z,1.73
2023-05-16T03:32:18.044Z,0.67
2023-05-16T03:34:46.757Z,0.70
2023-05-16T03:37:16.104Z,0.90
2023-05-16T03:39:43.495Z,0.90
2023-05-16T03:42:10.879Z,1.20
2023-05-16T03:44:38.578Z,0.87
2023-05-16T03:47:06.445Z,1.07
2023-05-16T03:49:33.781Z,1.33
2023-05-16T03:52:01.897Z,0.67
2023-05-16T03:54:29.238Z,1.03
2023-05-16T03:56:56.702Z,1.30
2023-05-16T03:59:24.085Z,0.57
2023-05-16T04:01:51.614Z,0.90
2023-05-16T04:04:19.063Z,0.60
2023-05-16T04:06:46.437Z,0.70
2023-05-16T04:09:13.835Z,0.87
2023-05-16T04:11:41.262Z,0.60
2023-05-16T04:14:08.879Z,0.80
2023-05-16T04:16:36.267Z,1.50
2023-05-16T04:19:03.927Z,1.07
2023-05-16T04:21:31.817Z,2.00
2023-05-16T04:23:59.407Z,1.13
2023-05-16T04:26:27.506Z,1.10
2023-05-16T04:28:54.924Z,0.97
2023-05-16T04:31:23.359Z,1.13
2023-05-16T04:33:50.778Z,1.10
2023-05-16T04:36:18.093Z,1.23
2023-05-16T04:38:47.297Z,0.80
2023-05-16T04:41:14.717Z,1.90
2023-05-16T04:43:42.144Z,0.90
2023-05-16T04:46:10.024Z,1.20
2023-05-16T04:48:37.429Z,0.80
2023-05-16T04:51:04.953Z,1.73
2023-05-16T04:53:32.468Z,1.30
2023-05-16T04:56:00.348Z,1.00
2023-05-16T04:58:27.794Z,0.60
2023-05-16T05:00:55.873Z,1.13
2023-05-16T05:03:23.350Z,1.30
2023-05-16T05:05:50.845Z,2.13
2023-05-16T05:08:19.067Z,1.00
2023-05-16T05:10:46.465Z,1.23
2023-05-16T05:13:13.830Z,2.00
2023-05-16T05:15:41.206Z,1.50
2023-05-16T05:18:08.636Z,2.60
2023-05-16T05:20:36.728Z,1.80
2023-05-16T05:23:04.193Z,2.20
2023-05-16T05:25:31.617Z,1.47
2023-05-16T05:27:58.908Z,1.40
2023-05-16T05:30:26.492Z,1.70
2023-05-16T05:32:54.853Z,1.43
2023-05-16T05:35:22.222Z,2.70
2023-05-16T05:37:49.526Z,1.27
2023-05-16T05:40:16.984Z,1.60
2023-05-16T05:42:46.879Z,1.03
2023-05-16T05:45:16.068Z,1.70
2023-05-16T05:47:44.206Z,1.50
2023-05-16T05:50:12.114Z,1.13
2023-05-16T05:52:39.682Z,2.10
2023-05-16T05:55:07.258Z,2.40
2023-05-16T05:57:34.604Z,3.50
2023-05-16T06:00:02.084Z,1.47
2023-05-16T06:02:36.116Z,2.30
2023-05-16T06:05:03.644Z,2.60
2023-05-16T06:07:31.063Z,2.80
2023-05-16T06:09:58.453Z,0.60
2023-05-16T06:12:25.902Z,1.80
2023-05-16T06:14:53.267Z,2.10
2023-05-16T06:17:20.688Z,2.50
2023-05-16T06:19:48.128Z,1.20
2023-05-16T06:22:15.484Z,3.60
2023-05-16T06:24:43.092Z,1.73
2023-05-16T06:27:10.461Z,3.13
2023-05-16T06:29:38.005Z,2.03
2023-05-16T06:32:05.640Z,1.37
2023-05-16T06:34:32.969Z,3.30
2023-05-16T06:37:00.817Z,1.20
2023-05-16T06:39:28.190Z,2.97
2023-05-16T06:41:56.713Z,1.87
2023-05-16T06:44:24.941Z,2.53
2023-05-16T06:46:52.439Z,3.73
2023-05-16T06:49:19.941Z,3.80
2023-05-16T06:51:47.334Z,3.10
2023-05-16T06:54:15.010Z,4.30
2023-05-16T06:56:42.389Z,3.90
2023-05-16T06:59:09.755Z,2.70
2023-05-16T07:01:37.108Z,2.90
2023-05-16T07:04:04.855Z,2.07
2023-05-16T07:06:32.394Z,3.33
2023-05-16T07:08:59.795Z,3.87
2023-05-16T07:11:27.176Z,2.43
2023-05-16T07:13:54.602Z,2.13
2023-05-16T07:16:22.354Z,2.13
2023-05-16T07:18:49.848Z,2.67
2023-05-16T07:21:18.671Z,2.00
2023-05-16T07:23:46.281Z,4.70
2023-05-16T07:26:13.651Z,2.20
2023-05-16T07:28:41.101Z,3.37
2023-05-16T07:31:08.538Z,2.80
2023-05-16T07:33:36.044Z,2.43
2023-05-16T07:36:15.342Z,2.43
2023-05-16T07:38:44.379Z,2.87
2023-05-16T07:41:12.041Z,1.53
2023-05-16T07:43:39.459Z,3.40
2023-05-16T07:46:07.029Z,2.10
2023-05-16T07:48:34.471Z,3.03
2023-05-16T07:51:01.840Z,2.33
2023-05-16T07:53:29.213Z,1.60
2023-05-16T07:55:56.608Z,1.33
2023-05-16T07:58:24.028Z,1.27
2023-05-16T08:00:51.470Z,2.07
2023-05-16T08:03:18.969Z,0.70
2023-05-16T08:05:46.535Z,1.20
2023-05-16T08:08:13.931Z,1.73
2023-05-16T08:10:41.311Z,1.40
2023-05-16T08:13:08.739Z,2.50
2023-05-16T08:15:36.172Z,1.00
2023-05-16T08:18:03.726Z,1.87
2023-05-16T08:20:31.157Z,1.57
2023-05-16T08:22:58.840Z,1.33
2023-05-16T08:25:26.871Z,1.60
2023-05-16T08:27:54.529Z,1.53
2023-05-16T08:30:22.005Z,1.37
2023-05-16T08:32:49.485Z,1.57
2023-05-16T08:35:16.963Z,1.00
2023-05-16T08:37:44.320Z,1.27
2023-05-16T08:40:12.625Z,2.40
2023-05-16T08:42:40.389Z,4.33
2023-05-16T08:45:08.971Z,2.30
2023-05-16T08:47:37.583Z,1.67
2023-05-16T08:50:05.782Z,2.43
2023-05-16T08:52:33.745Z,2.10
2023-05-16T08:55:11.135Z,2.37
2023-05-16T08:57:39.498Z,1.33
2023-05-16T09:00:13.260Z,4.03
2023-05-16T09:02:42.331Z,1.17
2023-05-16T09:05:14.693Z,1.60
2023-05-16T09:07:46.025Z,1.50
2023-05-16T09:10:14.164Z,2.10
2023-05-16T09:12:42.307Z,1.50
2023-05-16T09:15:11.134Z,1.50
2023-05-16T09:17:46.669Z,2.90
2023-05-16T09:20:16.152Z,1.50
2023-05-16T09:22:54.888Z,1.40
2023-05-16T09:27:58.570Z,1.70
2023-05-16T09:30:31.591Z,2.47
2023-05-16T09:32:59.716Z,1.97
2023-05-16T09:37:58.146Z,2.00
2023-05-16T09:40:25.555Z,2.60
2023-05-16T09:43:06.067Z,2.93
2023-05-16T09:45:34.937Z,1.83
2023-05-16T09:48:13.086Z,3.10
2023-05-16T09:50:42.223Z,2.37
2023-05-16T09:53:09.685Z,2.40
2023-05-16T09:55:37.016Z,1.97
2023-05-16T09:58:04.490Z,3.13
2023-05-16T10:00:33.679Z,3.07
2023-05-16T10:03:05.478Z,1.83
2023-05-16T10:05:34.666Z,2.87
2023-05-16T10:08:03.847Z,2.70
2023-05-16T10:10:32.750Z,3.00
2023-05-16T10:13:01.564Z,2.03
2023-05-16T10:15:30.214Z,1.83
2023-05-16T10:18:01.942Z,2.30
2023-05-16T10:20:29.588Z,2.40
2023-05-16T10:22:57.322Z,1.97
2023-05-16T10:25:39.423Z,1.63
2023-05-16T10:28:08.511Z,2.30
2023-05-16T10:30:36.204Z,2.60
2023-05-16T10:33:04.703Z,2.00
2023-05-16T10:35:33.005Z,3.30
2023-05-16T10:38:01.392Z,2.50
2023-05-16T10:40:29.637Z,1.57
2023-05-16T10:42:59.721Z,1.40
2023-05-16T10:45:27.503Z,2.20
2023-05-16T10:47:59.102Z,1.67
2023-05-16T10:50:43.806Z,1.87
2023-05-16T10:53:33.268Z,1.27
2023-05-16T10:56:00.838Z,3.67
2023-05-16T10:58:38.143Z,1.80
2023-05-16T11:01:27.640Z,2.13
2023-05-16T11:03:58.427Z,1.80
2023-05-16T11:06:29.329Z,1.77
2023-05-16T11:09:11.740Z,3.73
2023-05-16T11:11:49.027Z,2.10
2023-05-16T11:14:32.799Z,1.67
2023-05-16T11:17:13.893Z,3.20
2023-05-16T11:19:52.512Z,1.20
2023-05-16T11:22:19.962Z,2.93
2023-05-16T11:25:00.826Z,3.10
2023-05-16T11:27:36.287Z,2.43
2023-05-16T11:30:06.734Z,3.40
2023-05-16T11:32:38.926Z,2.80
2023-05-16T11:35:09.105Z,1.60
2023-05-16T11:37:37.687Z,3.80
2023-05-16T11:40:09.689Z,2.20
2023-05-16T11:42:42.703Z,1.40
2023-05-16T11:45:14.385Z,1.23
2023-05-16T11:47:42.772Z,1.90
2023-05-16T11:50:14.734Z,1.60
2023-05-16T11:52:45.971Z,3.10
2023-05-16T11:55:21.520Z,2.23
2023-05-16T11:57:58.136Z,2.80
2023-05-16T12:00:26.688Z,2.03
2023-05-16T12:03:04.904Z,1.93
2023-05-16T12:05:34.036Z,1.90
2023-05-16T12:08:02.793Z,1.93
2023-05-16T12:10:34.643Z,3.07
2023-05-16T12:13:03.474Z,1.97
2023-05-16T12:15:31.329Z,1.57
2023-05-16T12:17:59.198Z,2.87
2023-05-16T12:20:26.760Z,3.10
2023-05-16T12:22:54.441Z,2.07
2023-05-16T12:25:29.810Z,2.00
2023-05-16T12:28:02.348Z,1.40
2023-05-16T12:30:32.082Z,1.10
2023-05-16T12:33:00.965Z,1.67
2023-05-16T12:35:33.251Z,1.63
2023-05-16T12:38:04.585Z,2.83
2023-05-16T12:40:32.339Z,2.67
2023-05-16T12:42:59.885Z,1.90
2023-05-16T12:45:28.465Z,3.07
2023-05-16T12:47:56.090Z,1.57
2023-05-16T12:50:23.570Z,1.63
2023-05-16T12:53:00.527Z,0.90
2023-05-16T12:55:28.003Z,1.30
2023-05-16T12:57:57.525Z,0.80
2023-05-16T13:00:25.278Z,0.83
2023-05-16T13:02:53.122Z,0.50
2023-05-16T13:05:24.368Z,1.23
2023-05-16T13:07:51.915Z,1.00
2023-05-16T13:10:19.715Z,1.20
2023-05-16T13:12:47.718Z,1.30
2023-05-16T13:15:15.544Z,1.30
2023-05-16T13:17:48.222Z,1.53
2023-05-16T13:20:15.848Z,0.83
2023-05-16T13:22:43.929Z,1.20
2023-05-16T13:25:12.265Z,0.93
2023-05-16T13:27:39.691Z,1.03
2023-05-16T13:30:10.268Z,0.93
2023-05-16T13:32:38.154Z,0.77
2023-05-16T13:35:06.133Z,0.50
2023-05-16T13:37:33.858Z,0.60
2023-05-16T13:40:01.339Z,1.13
2023-05-16T13:42:28.842Z,0.90
2023-05-16T13:44:56.412Z,0.50
2023-05-16T13:47:23.802Z,0.50
2023-05-16T13:49:51.373Z,0.70
2023-05-16T13:52:18.767Z,1.07
2023-05-16T13:54:46.157Z,0.60
2023-05-16T13:57:13.566Z,1.00
2023-05-16T14:02:11.350Z,1.20
2023-05-16T14:04:38.961Z,0.47
2023-05-16T14:07:06.454Z,0.50
2023-05-16T14:09:35.959Z,0.60
2023-05-16T14:12:04.147Z,0.60
2023-05-16T14:14:32.019Z,0.97
2023-05-16T14:16:59.661Z,0.70
2023-05-16T14:19:27.195Z,0.40
2023-05-16T14:21:55.055Z,1.40
2023-05-16T14:24:22.761Z,1.40
2023-05-16T14:26:57.474Z,0.40
2023-05-16T14:29:25.524Z,1.00
2023-05-16T14:31:53.408Z,1.47
2023-05-16T14:34:22.373Z,0.70
2023-05-16T14:36:50.862Z,0.80
2023-05-16T14:39:18.401Z,0.60
2023-05-16T14:41:45.826Z,0.47
2023-05-16T14:44:13.386Z,1.63
2023-05-16T14:46:40.941Z,1.53
2023-05-16T14:49:09.112Z,0.70
2023-05-16T14:51:36.563Z,0.97
2023-05-16T14:54:04.661Z,0.80
2023-05-16T14:56:32.724Z,0.60
2023-05-16T14:59:00.538Z,1.03
2023-05-16T15:01:28.043Z,1.43
2023-05-16T15:03:56.622Z,1.20
2023-05-16T15:06:25.207Z,0.50
2023-05-16T15:08:52.595Z,0.60
2023-05-16T15:11:20.095Z,0.60
2023-05-16T15:13:48.505Z,0.60
2023-05-16T15:16:16.699Z,0.50
2023-05-16T15:18:44.400Z,0.80
2023-05-16T15:21:11.808Z,0.50
2023-05-16T15:23:39.235Z,0.50
2023-05-16T15:26:06.733Z,0.87
2023-05-16T15:28:34.133Z,0.40
2023-05-16T15:31:02.933Z,0.77
2023-05-16T15:33:30.309Z,0.50
2023-05-16T15:35:58.032Z,0.90
2023-05-16T15:38:25.504Z,0.50
2023-05-16T15:41:09.809Z,0.63
2023-05-16T15:43:40.394Z,0.50
2023-05-16T15:46:10.161Z,1.00
2023-05-16T15:48:42.806Z,0.70
2023-05-16T15:51:13.389Z,0.93
2023-05-16T15:53:41.171Z,0.50
2023-05-16T15:56:11.835Z,0.73
2023-05-16T15:58:39.268Z,0.90
2023-05-16T16:01:06.699Z,0.60
2023-05-16T16:03:34.190Z,0.70
2023-05-16T16:06:01.642Z,0.43
2023-05-16T16:08:29.002Z,0.57
2023-05-16T16:10:56.510Z,0.83
2023-05-16T16:13:24.336Z,0.60
2023-05-16T16:15:52.025Z,0.50
2023-05-16T16:18:19.514Z,0.70
2023-05-16T16:20:46.966Z,0.63
2023-05-16T16:23:14.403Z,0.40
2023-05-16T16:25:41.780Z,0.50
2023-05-16T16:28:09.161Z,0.70
2023-05-16T16:30:36.534Z,1.00
2023-05-16T16:33:04.441Z,0.50
2023-05-16T16:35:32.065Z,0.50
2023-05-16T16:38:06.736Z,0.63
2023-05-16T16:40:35.423Z,0.60
2023-05-16T16:43:04.070Z,0.50
2023-05-16T16:45:31.669Z,0.70
2023-05-16T16:47:59.225Z,0.60
2023-05-16T16:50:26.681Z,0.70
2023-05-16T16:52:54.768Z,0.40
2023-05-16T16:55:22.205Z,1.07
2023-05-16T16:57:49.572Z,0.50
2023-05-16T17:00:17.262Z,0.40
2023-05-16T17:02:44.788Z,0.40
2023-05-16T17:05:12.474Z,0.60
2023-05-16T17:07:39.961Z,0.70
2023-05-16T17:10:07.932Z,0.40
2023-05-16T17:12:36.102Z,0.40
2023-05-16T17:15:06.675Z,0.40
2023-05-16T17:17:34.087Z,1.20
2023-05-16T17:20:05.749Z,0.70
2023-05-16T17:22:33.793Z,0.63
2023-05-16T17:25:01.213Z,0.60
2023-05-16T17:27:28.662Z,0.80
2023-05-16T17:29:56.108Z,0.67
2023-05-16T17:32:23.543Z,0.40
2023-05-16T17:34:51.266Z,0.50
2023-05-16T17:37:18.702Z,0.60
2023-05-16T17:39:46.698Z,0.60
2023-05-16T17:42:14.291Z,0.50
2023-05-16T17:44:41.706Z,0.60
2023-05-16T17:47:09.089Z,0.50
2023-05-16T17:49:36.502Z,0.70
2023-05-16T17:52:04.247Z,0.40
2023-05-16T17:54:32.205Z,0.70
2023-05-16T17:57:00.472Z,0.40
2023-05-16T17:59:28.231Z,0.60
2023-05-16T18:01:57.451Z,0.50
2023-05-16T18:04:25.219Z,0.40
2023-05-16T18:06:53.037Z,0.50
2023-05-16T18:09:21.777Z,0.60
2023-05-16T18:11:49.956Z,0.80
2023-05-16T18:14:17.466Z,0.50
2023-05-16T18:16:44.875Z,0.83
2023-05-16T18:19:12.659Z,1.80
2023-05-16T18:21:40.957Z,0.40
2023-05-16T18:24:09.460Z,0.50
2023-05-16T18:26:36.949Z,0.50
2023-05-16T18:29:04.302Z,0.40
2023-05-16T18:31:33.646Z,0.57
2023-05-16T18:34:03.873Z,0.70
2023-05-16T18:36:31.652Z,0.50
2023-05-16T18:38:58.955Z,0.40
2023-05-16T18:41:27.029Z,0.60
2023-05-16T18:43:54.378Z,0.57
2023-05-16T18:46:21.709Z,0.70
2023-05-16T18:48:49.122Z,0.60
2023-05-16T18:51:16.700Z,0.50
2023-05-16T18:53:44.042Z,0.67
2023-05-16T18:56:11.374Z,0.40
2023-05-16T18:58:38.945Z,0.40
2023-05-16T19:01:06.317Z,0.40
2023-05-16T19:03:33.862Z,0.40
2023-05-16T19:06:01.346Z,0.60
2023-05-16T19:08:36.979Z,0.50
2023-05-16T19:11:07.978Z,0.40
2023-05-16T19:13:35.716Z,0.70
2023-05-16T19:16:03.102Z,0.60
2023-05-16T19:18:30.760Z,0.50
2023-05-16T19:20:58.235Z,0.50
2023-05-16T19:23:25.689Z,0.40
2023-05-16T19:25:53.484Z,0.50
2023-05-16T19:28:21.030Z,0.40
2023-05-16T19:30:48.420Z,0.50
2023-05-16T19:33:16.547Z,0.60
2023-05-16T19:35:43.968Z,0.70
2023-05-16T19:38:11.317Z,0.50
2023-05-16T19:40:38.673Z,0.40
2023-05-16T19:43:06.085Z,0.50
2023-05-16T19:45:34.045Z,0.40
2023-05-16T19:48:02.412Z,0.50
2023-05-16T19:50:30.045Z,0.50
2023-05-16T19:52:57.413Z,0.50
2023-05-16T19:55:27.047Z,0.50
2023-05-16T19:57:55.038Z,0.50
2023-05-16T20:00:22.439Z,0.60
2023-05-16T20:02:53.160Z,0.40
2023-05-16T20:05:23.252Z,0.40
2023-05-16T20:07:51.907Z,0.70
2023-05-16T20:10:21.733Z,0.40
2023-05-16T20:12:49.480Z,0.70
2023-05-16T20:15:17.231Z,1.43
2023-05-16T20:17:44.633Z,0.50
2023-05-16T20:20:12.144Z,0.80
2023-05-16T20:22:41.282Z,1.33
2023-05-16T20:25:09.744Z,0.50
2023-05-16T20:27:37.755Z,0.50
2023-05-16T20:30:06.962Z,1.10
2023-05-16T20:32:34.881Z,0.90
2023-05-16T20:35:04.321Z,0.40
2023-05-16T20:37:31.783Z,0.40
2023-05-16T20:39:59.289Z,0.40
2023-05-16T20:42:26.794Z,0.40
2023-05-16T20:44:54.409Z,0.40
2023-05-16T20:47:21.844Z,0.67
2023-05-16T20:49:49.287Z,0.50
2023-05-16T20:52:16.687Z,0.60
2023-05-16T20:54:44.265Z,0.40
2023-05-16T20:57:11.657Z,0.40
2023-05-16T20:59:39.066Z,0.50
2023-05-16T21:02:09.611Z,0.50
2023-05-16T21:04:37.836Z,0.90
2023-05-16T21:07:07.904Z,0.47
2023-05-16T21:09:37.786Z,0.73
2023-05-16T21:12:05.695Z,0.50
2023-05-16T21:14:33.065Z,0.70
2023-05-16T21:17:00.547Z,0.40
2023-05-16T21:19:30.185Z,0.47
2023-05-16T21:21:57.708Z,0.50
2023-05-16T21:24:25.288Z,1.47
2023-05-16T21:26:52.677Z,1.13
2023-05-16T21:29:20.062Z,0.40
2023-05-16T21:31:47.405Z,0.60
2023-05-16T21:34:14.863Z,0.40
2023-05-16T21:36:42.295Z,2.50
2023-05-16T21:39:09.792Z,0.60
2023-05-16T21:41:37.236Z,0.40
2023-05-16T21:44:04.720Z,1.10
2023-05-16T21:46:32.166Z,1.37
2023-05-16T21:48:59.672Z,0.67
2023-05-16T21:51:27.262Z,1.13
2023-05-16T21:53:54.638Z,0.50
2023-05-16T21:56:22.954Z,0.67
2023-05-16T21:58:50.311Z,0.60
2023-05-16T22:01:20.119Z,0.77
2023-05-16T22:03:47.670Z,0.50
2023-05-16T22:06:15.096Z,0.83
2023-05-16T22:08:42.409Z,0.70
2023-05-16T22:11:09.855Z,0.40
2023-05-16T22:13:37.249Z,0.40
2023-05-16T22:16:05.430Z,0.73
2023-05-16T22:18:33.880Z,1.97
2023-05-16T22:21:01.936Z,1.37
2023-05-16T22:23:29.477Z,0.60
2023-05-16T22:25:56.950Z,0.63
2023-05-16T22:28:24.371Z,0.50
2023-05-16T22:30:51.740Z,0.60
2023-05-16T22:33:19.314Z,0.50
2023-05-16T22:35:46.751Z,0.40
2023-05-16T22:38:14.158Z,0.40
2023-05-16T22:40:41.626Z,0.53
2023-05-16T22:43:09.104Z,0.60
2023-05-16T22:45:36.562Z,0.53
2023-05-16T22:48:04.201Z,0.50
2023-05-16T22:50:31.673Z,0.50
2023-05-16T22:52:59.019Z,0.80
2023-05-16T22:55:26.633Z,0.70
2023-05-16T22:57:57.214Z,0.93
2023-05-16T23:00:24.907Z,1.13
2023-05-16T23:02:52.697Z,0.50
2023-05-16T23:05:20.559Z,0.50
2023-05-16T23:07:47.958Z,0.70
2023-05-16T23:10:15.499Z,0.57
2023-05-16T23:12:42.942Z,0.43
2023-05-16T23:15:10.859Z,0.50
2023-05-16T23:17:39.340Z,1.00
2023-05-16T23:20:07.912Z,0.90
2023-05-16T23:22:35.333Z,2.40
2023-05-16T23:25:02.749Z,0.97
2023-05-16T23:27:30.206Z,0.70
2023-05-16T23:29:57.744Z,0.40
2023-05-16T23:32:25.177Z,0.70
2023-05-16T23:34:52.858Z,0.50
2023-05-16T23:37:21.004Z,0.60
2023-05-16T23:39:48.392Z,0.50
2023-05-16T23:42:15.846Z,0.40
2023-05-16T23:44:43.364Z,0.73
2023-05-16T23:47:10.779Z,0.50
2023-05-16T23:49:38.167Z,0.50
2023-05-16T23:52:06.105Z,0.43
2023-05-16T23:54:34.367Z,0.47
2023-05-16T23:57:01.870Z,0.40
2023-05-16T23:59:29.268Z,0.50
